לגלישה באתר בגירסה המותאמת לסלולאר
| הוספת הודעה
הגדרות תצוגה

הגדרות עץ הודעות

מאפייני צפייה

הצג טקסט בתצוגה
הצג תגובות באופן
עדכן
2659626,596 עוקבים אודות עסקים

פורום מזג האוויר

מעונינים להתעדכן או לעדכן בכל מה שקשור למזג האוויר? זהו המקום.
 
 
 
 

הנהלת הפורום:

אודות הפורום מזג האוויר

מעונינים להתעדכן או לעדכן בכל מה שקשור למזג האוויר? זהו המקום.
 
 
 
 
x
הודעה מהנהלת הפורום
 
 ברוכים הבאים לפורום מזג אוויר, גלישה מהנה ופורה :)
המשך >>

לצפיה ב-'מחר בערב סופות רעמים במרכז הארץ'
מחר בערב סופות רעמים במרכז הארץ
<< ההודעה הנוכחית
20/02/2020 | 15:18
17
899
כך לפחות צופה מודל קוסמו של השמ"ט
מזג האוויר >>
לצפיה ב-'דוגמה לגרף יציבות בשעה זו'
דוגמה לגרף יציבות בשעה זו
20/02/2020 | 15:21
10
445
לצפיה ב-'אפשר הסבר איך קוראים את הגרף ?'
אפשר הסבר איך קוראים את הגרף ?
20/02/2020 | 19:26
9
96
לצפיה ב-'אגב נראה לי שנעבור 50 מילמטרים בהרבה אזורים מההודעה האחרונה'
אגב נראה לי שנעבור 50 מילמטרים בהרבה אזורים מההודעה האחרונה
21/02/2020 | 14:25
5
258
לצפיה ב-'לא למערכת אחת. התחזית שנתתי התגשמה'
לא למערכת אחת. התחזית שנתתי התגשמה
21/02/2020 | 14:49
4
129
לצפיה ב-'התחזית היתה מעולה '
התחזית היתה מעולה
22/02/2020 | 11:16
135
ןהעידה על הבנה מעמיקה בתחום.
תודה על התחזית והנצגת.
מזג האוויר >>
לצפיה ב-'כזכור לי כתבת עד סוף פברואר לא מערכת 1 (:-'
כזכור לי כתבת עד סוף פברואר לא מערכת 1 (:-
22/02/2020 | 14:12
2
109
ונדיר שבשבוע מערכת אחת תוריד מעל 10% מהשנתי.
מזג האוויר >>
לצפיה ב-'הנה מה שהוא רשם בעמוד 2:'
הנה מה שהוא רשם בעמוד 2:
22/02/2020 | 15:00
1
104
"
ה NAO/AO צפויים להשאר חיוביים בשבועיים וחצי הקרובים ומרכז הוורטקס (טרופוספרי וסטרטוספרי) צפוי להתרחק מאיתנו ולשמור את הקור רחוק מישראל.
לכן נראה שאפיקים יעברו צפונית מאיתנו, וביחד עם הים התיכון הקר (כרגע 18 מעלות), לדעתי לא תהיה בהמשך פברואר אף מערכת שתוריד 50מ"מ גשם בפריסה רחבה, גם לא בצפון הארץ."
 
הזיכרון שלך לא משהו ניצן...
 
מזג האוויר >>
לצפיה ב-'אז הוא לא היה ברור, בכל מקרה סביר שכמה מקומות יעברו את ה50'
אז הוא לא היה ברור, בכל מקרה סביר שכמה מקומות יעברו את ה50
22/02/2020 | 17:52
59
במערכת הזאת.
מזג האוויר >>
לצפיה ב-'תודה על הבאת המצגת.'
תודה על הבאת המצגת.
21/02/2020 | 14:40
1
47
לצפיה ב-'בשמחה'
בשמחה
21/02/2020 | 15:01
22
לצפיה ב-'תחזית תעופתית של השמ"ט עד מחר ב2 בצהרים'
תחזית תעופתית של השמ"ט עד מחר ב2 בצהרים
21/02/2020 | 14:11
1
268
 
ראש פינה
TAF LLIB 211106Z 2112/2212 17008KT 8000 SCT030
 BECMG 2116/2118 VRB04KT 6000 SCT020
 TEMPO 2121/2207 20012KT 2000 TSRA BR SCT005 FEW015CB BKN020
 PROB30 2207/2212 20012KT 4000 SHRA BR SCT010 FEW015TCU BKN020 TX16/2112Z TN09/2204Z
 
רוח דרומית קלה,
זמנית בין 11 הלילה ל 9 בבוקר, שבת, ירד מדי פעם גשם עם סופות רעמים. מעט ענני CB. ראות זמנית תרד ל2 קמ.
קיים סיכוי נמוך (30%) לממטרים במהלך הבוקר ועד לסיום התחזית בשעה 2.
 
מפרץ חיפה
TAF LLHA 211107Z 2112/2212 20010KT CAVOK
 BECMG 2114/2116 23015KT 8000 -RA SCT030
 PROB40 2116/2207 25020G30KT 5000 TSRA FEW020CB BKN025
 PROB30 2207/2212 24015G25KT 6000 RA FEW020TCU BKN025 TX19/2112Z TN13/2204Z
רוח דר-דר- מערבית 10 קשרים
בין4 ל6 בערב הרוח תחוג בהדרגה לדר-מערבית 15 קשר ויעשה גשום- ירד גשם קל.
קיים סיכוי 40% שזמנית בין 6 בערב ל9 בבוקר מחר ירד מדי פעם גשם מלווה בס"ר, תנשב רוח מע-דר-מע ערה משבים עד 30 קשר.
קיים סיכוי נמוך 30% לגשם מדי פעם בין 9 ל2 בצהרים מחר.
 
הרצליה
TAF LLHZ 211109Z 2112/2212 14004KT 9999 SCT050
 PROB40 2115/2116 26010KT -RA BKN035
 BECMG 2116/2117 20010KT -RA BKN030
 PROB40 2117/2207 24015G25KT 5000 TSRA FEW020CB BKN025
 PROB40 2207/2212 25012KT 8000 RA FEW025TCU BKN030 TX19/2112Z TN12/2204Z
רוח דר-דר- מז קלה.
סיכוי 40% לגשם קל מהשעה 5 הערב. רוח מערבית קלה.
בין 6 ל7 הערב יחל לרדת גשם קל, רוח דר-דר- מערבית קלה.
קיים סיכוי 40% שבין 7 הערב ל9 בבוקר מחר, ירד מדי פעם גשם מלווה בס"ר. רוח מע-דר-מע מתונה עם משבים ערים עד 25 קשר.
קיים סיכוי 40% לגשם מדי פעם בין 9 בבוקר ל2 בצהרים מחר, סיום התחזית.
 
בן גוריון
TAF LLBG 211105Z 2112/2212 25010KT 9999 SCT050
 PROB40 2115/2116 26010KT -RA BKN035
 BECMG 2116/2117 21010KT SCT030
 PROB40 2117/2207 24015G25KT 5000 TSRA FEW020CB BKN025
 PROB40 2207/2212 25012KT 8000 RA FEW025TCU BKN030 TX21/2112Z TN12/2204Z
 
דומה להרצליה.
 
שדה התעופה ע"ש רמון
TAF LLER 211102Z 2112/2212 18010KT CAVOK
 BECMG 2115/2117 29004KT 9999 SCT045
 PROB30 2117/2120 27015G25KT 5000 DU
 PROB40 2210/2212 02010KT TX24/2113Z TN12/2204Z
רוח דר קלה.
סיכוי נמוך,30%, לאובך הערב, רוח מערבית 15 קשר ומשבים עד 25 קשר.
 
 
 
 
.
 
 
 
מזג האוויר >>
לצפיה ב-'הבריטי שבוע הבא מפגיז את הנגב'
הבריטי שבוע הבא מפגיז את הנגב
21/02/2020 | 15:27
291
הדרומי. למשל מעט צפונית לאילת צופה 75 מ''מ.   הקנדי למשל מפגיז את  אזור דרום הר חברון  עם מעל מאה מ''מ.
מזג האוויר >>
לצפיה ב-'קוסמו נשאר בשלו לגבי מעבר חזית קרה הערב'
קוסמו נשאר בשלו לגבי מעבר חזית קרה הערב
21/02/2020 | 15:28
2
381
מצ"ב אנימציה של התקדמות החזית
מזג האוויר >>
לצפיה ב-'לא הצליח...'
לא הצליח...
21/02/2020 | 15:32
407
אז קבלו את התמונה בה החזית חוצה את החוף
מזג האוויר >>
לצפיה ב-'החזית תגיע לחוף בחצי השעה הקרובה, גשם תוך שעה וחצי'
החזית תגיע לחוף בחצי השעה הקרובה, גשם תוך שעה וחצי
21/02/2020 | 18:09
178
זה בהערכה גסה על סמך תמונות לווין ומכם גשם.
מרכז השקע הוא מול חופי טורקיה
מזג האוויר >>
לצפיה ב-'WRF עדין ו־COSMO ל-48 שעות'
WRF עדין ו־COSMO ל-48 שעות
21/02/2020 | 16:15
448

מזג אוויר בישראל

הודעות אחרונות

חם בפורומים של תפוז

חפשו אותנו גם באינסטרגם
חפשו אותנו גם...
פודי תפוז - האינסטגרם החדש כל התמונות של...
חפשו אותנו גם באינסטרגם
חפשו אותנו גם...
פודי תפוז - האינסטגרם החדש כל התמונות של...
בפייסבוק שלנו כבר ביקרתם?
בפייסבוק שלנו כבר...
רוצים להיות תמיד מעודכנים במה שקורה בתפוז?
בפייסבוק שלנו כבר ביקרתם?
בפייסבוק שלנו כבר...
רוצים להיות תמיד מעודכנים במה שקורה בתפוז?

מקרא סימנים

בעלת תוכן
ללא תוכן
הודעה חדשה
הודעה נעוצה
אורח בפורום
הודעה ערוכה
מכיל תמונה
מכיל וידאו
מכיל קובץ